Time;durP1;ratioP1;P1;durP2;ratioP2;P2;SDS_P1;SDS_P2;PMS_P1;PMS_P2;Temp;Humidity;BMP_temperature;BMP_pressure;BME280_temperature;BME280_humidity;BME280_pressure;Samples;Min_cycle;Max_cycle;Signal;HPM_P1;HPM_P2
2023/03/08 00:01:30;;;;;;;24.33;11.52;;;;;;;;;;5055374;28;20123;-78
2023/03/08 00:03:58;;;;;;;24.25;10.63;;;;;;;;;;5055131;28;20085;-77
2023/03/08 00:06:26;;;;;;;21.55;10.82;;;;;;;;;;5046584;28;20073;-77
2023/03/08 00:08:56;;;;;;;20.30;10.60;;;;;;;;;;5043721;28;20560;-77
2023/03/08 00:11:23;;;;;;;23.27;11.15;;;;;;;;;;5054600;28;20144;-77
2023/03/08 00:13:50;;;;;;;18.15;10.02;;;;;;;;;;5054587;28;20036;-77
2023/03/08 00:16:18;;;;;;;22.80;9.90;;;;;;;;;;5054012;28;20219;-77
2023/03/08 00:18:45;;;;;;;17.35;9.50;;;;;;;;;;5054299;28;20094;-77
2023/03/08 00:21:13;;;;;;;21.00;9.15;;;;;;;;;;5053248;28;20045;-77
2023/03/08 00:23:40;;;;;;;19.05;9.32;;;;;;;;;;5053260;28;20045;-77
2023/03/08 00:26:09;;;;;;;24.98;11.27;;;;;;;;;;5052862;28;20059;-76
2023/03/08 00:28:35;;;;;;;23.48;10.13;;;;;;;;;;5063170;28;20040;-77
2023/03/08 00:31:04;;;;;;;20.17;10.02;;;;;;;;;;5052951;28;20485;-77
2023/03/08 00:33:31;;;;;;;23.50;9.38;;;;;;;;;;5052981;28;20051;-77
2023/03/08 00:35:59;;;;;;;19.20;9.43;;;;;;;;;;5053225;28;20049;-77
2023/03/08 00:38:26;;;;;;;21.83;9.52;;;;;;;;;;5053171;28;20127;-77
2023/03/08 00:40:53;;;;;;;21.65;9.75;;;;;;;;;;5053133;28;20415;-77
2023/03/08 00:43:21;;;;;;;21.33;9.80;;;;;;;;;;5057588;28;20140;-77
2023/03/08 00:45:48;;;;;;;20.95;9.68;;;;;;;;;;5053046;28;20123;-76
2023/03/08 00:48:15;;;;;;;21.52;9.73;;;;;;;;;;5052910;28;20060;-77
2023/03/08 00:50:41;;;;;;;17.92;9.43;;;;;;;;;;5052915;28;20044;-77
2023/03/08 00:53:08;;;;;;;21.50;9.65;;;;;;;;;;5052154;28;20131;-77
2023/03/08 00:55:35;;;;;;;18.55;9.68;;;;;;;;;;5052557;28;20148;-77
2023/03/08 00:58:01;;;;;;;18.42;9.52;;;;;;;;;;5052383;28;20068;-77
2023/03/08 01:00:30;;;;;;;18.70;9.00;;;;;;;;;;5052942;28;20049;-76
2023/03/08 01:02:57;;;;;;;19.23;9.10;;;;;;;;;;5052604;28;20135;-76
2023/03/08 01:05:24;;;;;;;19.33;9.57;;;;;;;;;;5051845;28;20475;-76
2023/03/08 01:07:51;;;;;;;16.58;8.15;;;;;;;;;;5039355;28;20120;-76
2023/03/08 01:10:18;;;;;;;21.92;9.63;;;;;;;;;;5052517;28;20045;-77
2023/03/08 01:12:44;;;;;;;18.98;8.95;;;;;;;;;;5052409;28;20133;-77
2023/03/08 01:15:11;;;;;;;18.27;8.55;;;;;;;;;;5052468;28;20427;-78
2023/03/08 01:17:39;;;;;;;19.33;9.05;;;;;;;;;;5052481;28;20124;-77
2023/03/08 01:20:07;;;;;;;18.20;8.98;;;;;;;;;;5051855;28;20423;-77
2023/03/08 01:22:34;;;;;;;18.70;8.88;;;;;;;;;;5052125;28;20090;-77
2023/03/08 01:25:00;;;;;;;21.55;8.85;;;;;;;;;;5052122;28;20137;-77
2023/03/08 01:27:27;;;;;;;20.13;8.93;;;;;;;;;;5051673;28;20132;-77
2023/03/08 01:29:53;;;;;;;20.20;8.40;;;;;;;;;;5052129;28;20076;-77
2023/03/08 01:32:20;;;;;;;19.50;8.85;;;;;;;;;;5051937;28;20369;-76
2023/03/08 01:34:48;;;;;;;20.48;9.00;;;;;;;;;;5051851;28;20080;-77
2023/03/08 01:37:15;;;;;;;17.60;8.30;;;;;;;;;;5051373;28;20132;-77
2023/03/08 01:39:42;;;;;;;19.02;8.13;;;;;;;;;;5051218;28;20037;-77
2023/03/08 01:42:08;;;;;;;21.05;10.15;;;;;;;;;;5051725;28;20132;-77
2023/03/08 01:44:54;;;;;;;17.08;9.65;;;;;;;;;;5051610;28;20123;-77
2023/03/08 01:47:22;;;;;;;15.80;8.02;;;;;;;;;;5051097;28;20136;-77
2023/03/08 01:49:52;;;;;;;16.77;7.70;;;;;;;;;;5051971;28;20139;-77
2023/03/08 01:52:23;;;;;;;22.90;9.10;;;;;;;;;;5052135;28;20140;-77
2023/03/08 01:54:52;;;;;;;16.10;7.03;;;;;;;;;;5051768;28;20048;-77
2023/03/08 01:57:21;;;;;;;16.33;7.85;;;;;;;;;;5051525;28;20107;-77
2023/03/08 01:59:50;;;;;;;18.05;8.38;;;;;;;;;;5054354;28;20041;-77
2023/03/08 02:02:18;;;;;;;17.40;8.98;;;;;;;;;;5057023;28;20078;-78
2023/03/08 02:04:45;;;;;;;20.23;9.07;;;;;;;;;;5054516;28;20132;-77
2023/03/08 02:07:13;;;;;;;17.80;9.07;;;;;;;;;;5037048;28;20049;-76
2023/03/08 02:09:40;;;;;;;17.13;8.43;;;;;;;;;;5040655;28;20041;-76
2023/03/08 02:12:11;;;;;;;22.38;8.90;;;;;;;;;;5051745;28;20049;-77
2023/03/08 02:14:38;;;;;;;22.17;9.75;;;;;;;;;;5050734;28;20045;-77
2023/03/08 02:17:04;;;;;;;18.00;8.82;;;;;;;;;;5050826;28;20488;-77
2023/03/08 02:19:39;;;;;;;18.40;8.82;;;;;;;;;;5051007;28;20448;-77
2023/03/08 02:22:10;;;;;;;18.92;8.80;;;;;;;;;;5051535;28;20049;-76
2023/03/08 02:24:38;;;;;;;17.45;8.95;;;;;;;;;;5051314;28;20056;-76
2023/03/08 02:27:09;;;;;;;16.42;8.30;;;;;;;;;;5051259;28;20127;-77
2023/03/08 02:29:36;;;;;;;22.75;10.38;;;;;;;;;;5051273;28;20124;-78
2023/03/08 02:32:02;;;;;;;17.67;8.82;;;;;;;;;;5053639;28;20051;-78
2023/03/08 02:34:29;;;;;;;18.65;9.07;;;;;;;;;;5055117;28;20393;-78
2023/03/08 02:36:55;;;;;;;18.58;8.68;;;;;;;;;;5054900;28;20128;-77
2023/03/08 02:39:22;;;;;;;17.90;9.13;;;;;;;;;;5055388;28;20120;-78
2023/03/08 02:41:50;;;;;;;20.02;9.02;;;;;;;;;;5035437;28;20059;-78
2023/03/08 02:44:17;;;;;;;21.98;9.43;;;;;;;;;;5039410;28;20381;-78
2023/03/08 02:46:43;;;;;;;18.10;8.98;;;;;;;;;;5054706;28;20045;-78
2023/03/08 02:49:10;;;;;;;18.75;8.50;;;;;;;;;;5055221;28;20077;-77
2023/03/08 02:51:37;;;;;;;21.73;9.63;;;;;;;;;;5054517;28;20507;-77
2023/03/08 02:54:03;;;;;;;22.60;9.20;;;;;;;;;;5055196;28;20051;-77
2023/03/08 02:56:31;;;;;;;16.67;8.35;;;;;;;;;;5054301;28;20117;-77
2023/03/08 02:58:58;;;;;;;20.27;9.68;;;;;;;;;;5054561;28;20085;-77
2023/03/08 03:01:25;;;;;;;20.52;8.20;;;;;;;;;;5054841;28;20124;-77
2023/03/08 03:03:54;;;;;;;25.10;9.90;;;;;;;;;;5054765;28;20136;-77
2023/03/08 03:06:22;;;;;;;17.67;9.18;;;;;;;;;;5054304;28;20079;-77
2023/03/08 03:08:48;;;;;;;18.75;9.15;;;;;;;;;;5054867;28;20131;-77
2023/03/08 03:11:17;;;;;;;19.05;9.25;;;;;;;;;;5054296;28;20053;-77
2023/03/08 03:13:44;;;;;;;21.30;9.77;;;;;;;;;;5054291;28;20049;-77
2023/03/08 03:16:15;;;;;;;21.45;9.68;;;;;;;;;;5054303;28;20072;-77
2023/03/08 03:18:42;;;;;;;16.88;8.52;;;;;;;;;;5054489;28;20132;-77
2023/03/08 03:21:12;;;;;;;22.20;9.77;;;;;;;;;;5054432;28;20041;-77
2023/03/08 03:23:39;;;;;;;20.67;9.47;;;;;;;;;;5054380;28;20136;-77
2023/03/08 03:26:08;;;;;;;19.02;9.40;;;;;;;;;;5049406;28;20734;-78
2023/03/08 03:28:35;;;;;;;21.30;9.30;;;;;;;;;;5054118;28;20133;-77
2023/03/08 03:31:02;;;;;;;22.48;9.73;;;;;;;;;;5054260;28;20049;-77
2023/03/08 03:33:30;;;;;;;19.13;9.32;;;;;;;;;;5054546;28;20079;-77
2023/03/08 03:35:56;;;;;;;22.70;10.82;;;;;;;;;;5053264;28;20045;-76
2023/03/08 03:38:23;;;;;;;21.13;9.80;;;;;;;;;;5053848;28;20132;-77
2023/03/08 03:40:50;;;;;;;20.08;10.02;;;;;;;;;;5053817;28;20587;-76
2023/03/08 03:43:16;;;;;;;20.63;9.93;;;;;;;;;;5053626;28;20132;-77
2023/03/08 03:45:43;;;;;;;21.58;9.90;;;;;;;;;;5051572;28;20667;-77
2023/03/08 03:48:09;;;;;;;21.05;9.48;;;;;;;;;;5053178;28;20135;-77
2023/03/08 03:50:37;;;;;;;21.27;10.35;;;;;;;;;;5046464;28;20067;-77
2023/03/08 03:53:04;;;;;;;22.98;10.82;;;;;;;;;;5054302;28;20083;-77
2023/03/08 03:55:30;;;;;;;21.88;10.18;;;;;;;;;;5053400;28;20045;-77
2023/03/08 03:57:57;;;;;;;21.13;10.52;;;;;;;;;;5052551;28;20128;-77
2023/03/08 04:00:24;;;;;;;22.85;11.07;;;;;;;;;;5053822;28;20049;-77
2023/03/08 04:02:50;;;;;;;24.65;11.40;;;;;;;;;;5054201;28;20088;-77
2023/03/08 04:05:17;;;;;;;21.10;10.30;;;;;;;;;;5053055;28;20144;-77
2023/03/08 04:07:45;;;;;;;18.80;10.00;;;;;;;;;;5048031;28;20137;-76
2023/03/08 04:10:11;;;;;;;22.83;10.35;;;;;;;;;;5053681;28;20045;-77
2023/03/08 04:12:38;;;;;;;20.75;10.23;;;;;;;;;;5053636;28;20055;-78
2023/03/08 04:15:06;;;;;;;20.65;10.32;;;;;;;;;;5053107;28;20076;-77
2023/03/08 04:17:33;;;;;;;19.08;9.90;;;;;;;;;;5053421;28;20161;-77
2023/03/08 04:20:00;;;;;;;20.90;10.30;;;;;;;;;;5053231;28;20080;-76
2023/03/08 04:22:26;;;;;;;22.40;10.15;;;;;;;;;;5053406;28;20063;-77
2023/03/08 04:24:54;;;;;;;20.52;9.30;;;;;;;;;;5053343;28;20041;-78
2023/03/08 04:27:21;;;;;;;23.95;11.00;;;;;;;;;;5053120;28;20381;-77
2023/03/08 04:29:47;;;;;;;21.90;10.30;;;;;;;;;;5053213;28;20506;-77
2023/03/08 04:32:14;;;;;;;23.45;11.30;;;;;;;;;;5053441;28;20411;-77
2023/03/08 04:34:42;;;;;;;22.15;10.20;;;;;;;;;;5053363;28;20053;-77
2023/03/08 04:37:09;;;;;;;22.73;9.95;;;;;;;;;;5052970;28;20044;-77
2023/03/08 04:39:36;;;;;;;19.80;10.05;;;;;;;;;;5053303;28;20047;-77
2023/03/08 04:42:04;;;;;;;21.13;10.90;;;;;;;;;;5053758;28;20041;-77
2023/03/08 04:44:31;;;;;;;23.02;10.48;;;;;;;;;;5053114;28;20049;-76
2023/03/08 04:46:58;;;;;;;22.42;11.68;;;;;;;;;;5052893;28;20127;-76
2023/03/08 04:49:25;;;;;;;30.00;13.70;;;;;;;;;;5052320;28;20044;-76
2023/03/08 04:51:51;;;;;;;28.55;13.52;;;;;;;;;;5053215;28;20415;-76
2023/03/08 04:54:18;;;;;;;25.30;12.10;;;;;;;;;;5052392;28;20135;-77
2023/03/08 04:56:45;;;;;;;25.92;13.48;;;;;;;;;;5055288;28;20045;-76
2023/03/08 04:59:12;;;;;;;25.27;12.60;;;;;;;;;;5061707;28;20041;-77
2023/03/08 05:01:41;;;;;;;25.35;11.20;;;;;;;;;;5059003;28;20275;-76
2023/03/08 05:04:10;;;;;;;24.67;10.85;;;;;;;;;;5056267;28;20135;-77
2023/03/08 05:06:37;;;;;;;26.15;10.98;;;;;;;;;;5103460;22;20584;-51
2023/03/08 05:09:05;;;;;;;21.23;10.38;;;;;;;;;;5065343;28;20045;-51
2023/03/08 05:11:31;;;;;;;23.27;10.40;;;;;;;;;;5073499;28;20052;-52
2023/03/08 05:13:59;;;;;;;24.08;10.88;;;;;;;;;;5054740;28;20049;-53
2023/03/08 05:16:27;;;;;;;20.17;11.00;;;;;;;;;;5053289;28;20049;-52
2023/03/08 05:18:54;;;;;;;23.50;10.88;;;;;;;;;;5065920;28;20045;-53
2023/03/08 05:21:23;;;;;;;27.20;12.00;;;;;;;;;;5071073;28;20493;-54
2023/03/08 05:23:49;;;;;;;22.80;11.25;;;;;;;;;;5056569;28;20141;-51
2023/03/08 05:26:18;;;;;;;20.40;10.40;;;;;;;;;;5053690;28;20045;-51
2023/03/08 05:28:45;;;;;;;22.58;12.27;;;;;;;;;;5073067;28;20618;-55
2023/03/08 05:31:13;;;;;;;24.67;11.57;;;;;;;;;;5058188;28;20425;-54
2023/03/08 05:33:43;;;;;;;23.60;11.13;;;;;;;;;;5053779;28;20056;-52
2023/03/08 05:36:11;;;;;;;25.35;11.40;;;;;;;;;;5053394;28;20045;-54
2023/03/08 05:38:38;;;;;;;21.33;10.70;;;;;;;;;;5067270;28;20495;-53
2023/03/08 05:41:07;;;;;;;25.25;10.88;;;;;;;;;;5064517;28;20074;-52
2023/03/08 05:43:34;;;;;;;22.77;11.27;;;;;;;;;;5070699;28;20045;-55
2023/03/08 05:46:02;;;;;;;24.55;11.90;;;;;;;;;;5073602;28;20053;-55
2023/03/08 05:48:29;;;;;;;22.33;11.88;;;;;;;;;;5060823;28;20075;-54
2023/03/08 05:50:57;;;;;;;20.17;10.45;;;;;;;;;;5071556;28;20559;-54
2023/03/08 05:53:25;;;;;;;21.70;11.10;;;;;;;;;;5059370;28;20045;-54
2023/03/08 05:55:54;;;;;;;22.58;11.60;;;;;;;;;;5054708;28;20044;-55
2023/03/08 05:58:21;;;;;;;21.50;10.98;;;;;;;;;;5053714;28;20064;-56
2023/03/08 06:00:47;;;;;;;24.05;11.40;;;;;;;;;;5069011;28;20048;-52
2023/03/08 06:03:14;;;;;;;24.20;11.43;;;;;;;;;;5057197;28;20045;-54
2023/03/08 06:05:41;;;;;;;23.13;12.05;;;;;;;;;;5054900;28;20053;-52
2023/03/08 06:08:09;;;;;;;24.50;12.63;;;;;;;;;;5058094;28;20437;-52
2023/03/08 06:10:36;;;;;;;29.35;12.68;;;;;;;;;;5077924;28;20041;-52
2023/03/08 06:13:03;;;;;;;27.60;12.30;;;;;;;;;;5058255;28;20111;-56
2023/03/08 06:15:30;;;;;;;26.85;12.77;;;;;;;;;;5071009;28;20109;-53
2023/03/08 06:17:56;;;;;;;29.17;13.30;;;;;;;;;;5069684;28;20045;-56
2023/03/08 06:20:23;;;;;;;26.48;12.82;;;;;;;;;;5077378;28;20110;-54
2023/03/08 06:22:50;;;;;;;28.50;14.18;;;;;;;;;;5076935;28;20154;-53
2023/03/08 06:25:18;;;;;;;27.40;13.73;;;;;;;;;;5077085;28;20110;-53
2023/03/08 06:27:45;;;;;;;27.65;14.48;;;;;;;;;;5066500;28;20433;-53
2023/03/08 06:30:12;;;;;;;27.33;13.35;;;;;;;;;;5060194;28;20045;-54
2023/03/08 06:32:40;;;;;;;24.77;12.82;;;;;;;;;;5070091;28;20049;-54
2023/03/08 06:35:07;;;;;;;28.10;12.80;;;;;;;;;;5077100;28;20053;-53
2023/03/08 06:37:34;;;;;;;24.55;12.77;;;;;;;;;;5064786;28;20106;-55
2023/03/08 06:40:02;;;;;;;24.15;12.05;;;;;;;;;;5061696;28;20052;-55
2023/03/08 06:42:30;;;;;;;26.70;13.23;;;;;;;;;;5067290;28;20076;-52
2023/03/08 06:44:57;;;;;;;40.72;13.98;;;;;;;;;;5066660;28;20552;-52
2023/03/08 06:47:24;;;;;;;26.77;13.82;;;;;;;;;;5064661;28;20110;-53
2023/03/08 06:49:52;;;;;;;29.77;13.98;;;;;;;;;;5069545;28;20049;-55
2023/03/08 06:52:19;;;;;;;32.92;14.55;;;;;;;;;;5058800;28;20065;-51
2023/03/08 06:54:45;;;;;;;25.23;12.93;;;;;;;;;;5058084;28;20111;-50
2023/03/08 06:57:12;;;;;;;25.02;13.10;;;;;;;;;;5057307;28;20102;-53
2023/03/08 06:59:40;;;;;;;29.83;14.93;;;;;;;;;;5057116;28;20045;-51
2023/03/08 07:02:07;;;;;;;30.67;13.88;;;;;;;;;;5037001;28;20464;-53
2023/03/08 07:04:34;;;;;;;30.90;14.40;;;;;;;;;;5048694;28;20463;-52
2023/03/08 07:07:01;;;;;;;26.05;13.43;;;;;;;;;;5065033;28;20106;-54
2023/03/08 07:09:27;;;;;;;29.30;13.35;;;;;;;;;;5069877;28;20048;-49
2023/03/08 07:11:54;;;;;;;32.95;14.20;;;;;;;;;;5056531;28;20053;-51
2023/03/08 07:14:21;;;;;;;31.73;15.00;;;;;;;;;;5054664;28;20103;-50
2023/03/08 07:16:49;;;;;;;26.65;13.88;;;;;;;;;;5069834;28;20053;-49
2023/03/08 07:19:16;;;;;;;32.85;14.13;;;;;;;;;;5073876;28;20044;-52
2023/03/08 07:21:43;;;;;;;34.22;15.23;;;;;;;;;;5074487;28;20125;-52
2023/03/08 07:24:10;;;;;;;29.95;14.23;;;;;;;;;;5074826;28;20044;-51
2023/03/08 07:26:37;;;;;;;33.08;14.35;;;;;;;;;;5074363;28;20135;-50
2023/03/08 07:29:04;;;;;;;30.75;14.63;;;;;;;;;;5074547;28;20095;-53
2023/03/08 07:31:34;;;;;;;29.05;15.13;;;;;;;;;;5061169;28;20048;-49
2023/03/08 07:34:03;;;;;;;30.20;13.75;;;;;;;;;;5054551;28;20509;-50
2023/03/08 07:36:29;;;;;;;33.95;15.20;;;;;;;;;;5053569;28;20048;-50
2023/03/08 07:38:56;;;;;;;31.70;15.82;;;;;;;;;;5053920;28;20405;-51
2023/03/08 07:41:23;;;;;;;30.02;14.95;;;;;;;;;;5054119;28;20352;-50
2023/03/08 07:43:50;;;;;;;28.20;14.45;;;;;;;;;;5054410;28;20045;-51
2023/03/08 07:46:16;;;;;;;31.80;15.63;;;;;;;;;;5068418;28;20049;-52
2023/03/08 07:48:43;;;;;;;31.58;16.08;;;;;;;;;;5073780;28;20102;-50
2023/03/08 07:51:12;;;;;;;33.33;14.85;;;;;;;;;;5073129;28;20060;-54
2023/03/08 07:53:38;;;;;;;30.48;14.98;;;;;;;;;;5073563;28;20040;-52
2023/03/08 07:56:06;;;;;;;27.90;13.15;;;;;;;;;;5073680;28;20045;-51
2023/03/08 07:58:33;;;;;;;28.65;13.13;;;;;;;;;;5074041;28;20177;-50
2023/03/08 08:00:59;;;;;;;28.98;13.80;;;;;;;;;;5064463;28;20091;-50
2023/03/08 08:03:28;;;;;;;31.77;13.77;;;;;;;;;;5053936;28;20044;-53
2023/03/08 08:05:55;;;;;;;24.10;12.43;;;;;;;;;;5059247;28;20509;-50
2023/03/08 08:08:23;;;;;;;27.08;12.88;;;;;;;;;;5072086;28;20078;-50
2023/03/08 08:10:50;;;;;;;23.83;11.80;;;;;;;;;;5065298;28;20041;-50
2023/03/08 08:13:16;;;;;;;26.58;12.52;;;;;;;;;;5051873;28;20410;-50
2023/03/08 08:15:43;;;;;;;26.33;13.30;;;;;;;;;;5051863;28;20457;-51
2023/03/08 08:18:10;;;;;;;26.15;13.45;;;;;;;;;;5052034;28;20053;-54
2023/03/08 08:20:37;;;;;;;25.23;12.30;;;;;;;;;;5071660;28;20451;-53
2023/03/08 08:23:05;;;;;;;26.83;12.98;;;;;;;;;;5071782;28;20044;-51
2023/03/08 08:25:34;;;;;;;28.13;13.70;;;;;;;;;;5070567;28;20068;-53
2023/03/08 08:28:00;;;;;;;23.75;13.18;;;;;;;;;;5071223;28;20098;-52
2023/03/08 08:30:27;;;;;;;24.80;12.60;;;;;;;;;;5053378;28;20076;-49
2023/03/08 08:32:54;;;;;;;25.33;12.73;;;;;;;;;;5051104;28;20555;-51
2023/03/08 08:35:21;;;;;;;27.08;13.27;;;;;;;;;;5067560;28;20563;-51
2023/03/08 08:37:48;;;;;;;23.20;12.00;;;;;;;;;;5070916;28;20091;-51
2023/03/08 08:40:15;;;;;;;24.95;14.10;;;;;;;;;;5070611;28;20044;-51
2023/03/08 08:42:43;;;;;;;23.02;12.02;;;;;;;;;;5070729;28;20045;-50
2023/03/08 08:45:10;;;;;;;29.10;14.32;;;;;;;;;;5070442;28;20049;-53
2023/03/08 08:47:37;;;;;;;29.23;13.77;;;;;;;;;;5070800;28;20048;-50
2023/03/08 08:50:05;;;;;;;28.63;13.23;;;;;;;;;;5058368;28;20045;-50
2023/03/08 08:52:31;;;;;;;24.98;11.82;;;;;;;;;;5050605;28;20094;-51
2023/03/08 08:55:00;;;;;;;25.33;12.15;;;;;;;;;;5050896;28;20107;-52
2023/03/08 08:57:27;;;;;;;27.85;13.20;;;;;;;;;;5050617;28;20052;-53
2023/03/08 08:59:55;;;;;;;24.55;12.18;;;;;;;;;;5051186;28;20049;-51
2023/03/08 09:02:23;;;;;;;26.42;13.18;;;;;;;;;;5050380;28;20049;-51
2023/03/08 09:04:50;;;;;;;25.20;11.65;;;;;;;;;;5057207;28;20048;-53
2023/03/08 09:07:16;;;;;;;25.40;11.10;;;;;;;;;;5050501;28;20049;-49
2023/03/08 09:09:45;;;;;;;21.73;12.23;;;;;;;;;;5051700;28;20049;-67
2023/03/08 09:12:11;;;;;;;22.60;11.13;;;;;;;;;;5050708;28;20356;-68
2023/03/08 09:14:38;;;;;;;22.42;12.38;;;;;;;;;;5067990;28;20048;-58
2023/03/08 09:17:07;;;;;;;23.88;11.52;;;;;;;;;;5068611;28;20524;-61
2023/03/08 09:19:35;;;;;;;24.20;11.95;;;;;;;;;;5056937;28;20468;-62
2023/03/08 09:22:02;;;;;;;21.00;10.27;;;;;;;;;;5051540;28;20235;-62
2023/03/08 09:24:28;;;;;;;20.20;11.02;;;;;;;;;;5064177;28;20118;-59
2023/03/08 09:26:55;;;;;;;24.98;12.43;;;;;;;;;;5053200;28;20134;-52
2023/03/08 09:29:22;;;;;;;22.90;11.63;;;;;;;;;;5055544;28;20041;-51
2023/03/08 09:31:49;;;;;;;24.45;11.20;;;;;;;;;;5065217;28;20464;-50
2023/03/08 09:34:17;;;;;;;23.73;11.65;;;;;;;;;;5052180;28;20057;-52
2023/03/08 09:36:44;;;;;;;20.13;10.85;;;;;;;;;;5051229;28;20059;-51
2023/03/08 09:39:12;;;;;;;22.77;11.77;;;;;;;;;;5049694;28;20052;-50
2023/03/08 09:41:48;;;;;;;22.10;10.77;;;;;;;;;;5049986;28;20541;-52
2023/03/08 09:44:42;;;;;;;27.85;11.82;;;;;;;;;;5049865;28;20456;-50
2023/03/08 09:47:16;;;;;;;25.83;11.50;;;;;;;;;;5065151;28;20080;-53
2023/03/08 09:49:46;;;;;;;27.88;12.13;;;;;;;;;;5069929;28;20102;-55
2023/03/08 09:52:20;;;;;;;23.25;12.68;;;;;;;;;;5069042;28;20048;-50
2023/03/08 09:54:48;;;;;;;28.42;13.35;;;;;;;;;;5056452;28;20045;-50
2023/03/08 09:57:18;;;;;;;29.77;13.18;;;;;;;;;;5049586;28;20053;-50
2023/03/08 09:59:52;;;;;;;25.52;14.85;;;;;;;;;;5049674;28;20057;-51
2023/03/08 10:02:29;;;;;;;26.38;13.20;;;;;;;;;;5029881;28;20557;-56
2023/03/08 10:05:04;;;;;;;24.42;13.27;;;;;;;;;;5033350;28;20046;-51
2023/03/08 10:07:43;;;;;;;27.65;14.20;;;;;;;;;;5069607;28;20056;-53
2023/03/08 10:10:27;;;;;;;27.73;13.68;;;;;;;;;;5067170;28;20048;-52
2023/03/08 10:13:29;;;;;;;27.85;13.75;;;;;;;;;;5049726;28;20056;-54
2023/03/08 10:16:04;;;;;;;26.25;14.13;;;;;;;;;;5049803;28;20048;-49
2023/03/08 10:18:35;;;;;;;26.98;13.73;;;;;;;;;;5049784;28;20139;-50
2023/03/08 10:21:04;;;;;;;24.70;13.60;;;;;;;;;;5058630;28;20268;-50
2023/03/08 10:23:32;;;;;;;26.90;12.95;;;;;;;;;;5069514;28;20045;-52
2023/03/08 10:26:00;;;;;;;25.05;12.98;;;;;;;;;;5069746;28;20067;-52
2023/03/08 10:28:27;;;;;;;26.63;13.30;;;;;;;;;;5069293;28;20576;-51
2023/03/08 10:30:57;;;;;;;28.35;14.00;;;;;;;;;;5056847;28;20045;-49
2023/03/08 10:33:26;;;;;;;27.67;13.85;;;;;;;;;;5049740;28;20049;-52
2023/03/08 10:35:57;;;;;;;28.00;13.63;;;;;;;;;;5049348;28;20045;-50
2023/03/08 10:38:28;;;;;;;28.73;14.13;;;;;;;;;;5054834;28;20204;-55
2023/03/08 10:41:02;;;;;;;27.60;13.55;;;;;;;;;;5069218;28;20052;-53
2023/03/08 10:43:32;;;;;;;27.33;13.45;;;;;;;;;;5064903;28;20082;-52
2023/03/08 10:46:01;;;;;;;26.58;13.77;;;;;;;;;;5069488;28;20662;-50
2023/03/08 10:48:28;;;;;;;29.45;13.30;;;;;;;;;;5069263;28;20052;-52
2023/03/08 10:51:00;;;;;;;20.75;10.82;;;;;;;;;;5069953;28;20056;-52
2023/03/08 10:53:29;;;;;;;23.98;11.77;;;;;;;;;;5072232;28;20130;-55
2023/03/08 10:55:58;;;;;;;27.58;15.23;;;;;;;;;;5073018;28;20340;-55
2023/03/08 10:58:32;;;;;;;25.83;11.77;;;;;;;;;;5073015;28;20528;-54
2023/03/08 11:01:00;;;;;;;23.58;10.30;;;;;;;;;;5073313;28;20135;-58
2023/03/08 11:03:27;;;;;;;19.58;8.93;;;;;;;;;;5073122;28;20390;-52
2023/03/08 11:05:57;;;;;;;17.52;7.78;;;;;;;;;;5073063;28;20048;-55
2023/03/08 11:08:27;;;;;;;15.10;7.00;;;;;;;;;;5073238;28;20109;-52
2023/03/08 11:11:03;;;;;;;16.30;7.20;;;;;;;;;;5073078;28;20269;-53
2023/03/08 11:13:32;;;;;;;14.85;7.63;;;;;;;;;;5073131;28;20094;-55
2023/03/08 11:16:19;;;;;;;18.20;8.40;;;;;;;;;;5072936;28;20122;-52
2023/03/08 11:18:53;;;;;;;18.60;8.23;;;;;;;;;;5072698;28;20120;-55
2023/03/08 11:21:29;;;;;;;19.80;9.88;;;;;;;;;;5072938;28;20052;-52
2023/03/08 11:24:04;;;;;;;20.48;10.25;;;;;;;;;;5072603;28;20048;-52
2023/03/08 11:26:40;;;;;;;19.50;11.10;;;;;;;;;;5072523;28;20044;-52
2023/03/08 11:29:21;;;;;;;20.10;10.02;;;;;;;;;;5072193;28;20047;-50
2023/03/08 11:31:51;;;;;;;;;;;;;;;;;;5072947;28;20056;-52
2023/03/08 11:34:36;;;;;;;13.20;7.13;;;;;;;;;;5072906;28;19920;-51
2023/03/08 11:37:09;;;;;;;13.20;6.85;;;;;;;;;;5072307;28;20056;-50
2023/03/08 11:39:40;;;;;;;13.48;6.80;;;;;;;;;;5072428;28;20102;-54
2023/03/08 11:42:18;;;;;;;11.68;5.40;;;;;;;;;;5072571;28;20148;-54
2023/03/08 11:45:05;;;;;;;11.95;5.50;;;;;;;;;;5072143;28;20061;-56
2023/03/08 11:48:06;;;;;;;12.25;5.50;;;;;;;;;;5072366;28;20048;-56
2023/03/08 11:50:37;;;;;;;13.55;5.47;;;;;;;;;;5072160;28;20098;-51
2023/03/08 11:53:09;;;;;;;;;;;;;;;;;;5072575;28;20076;-55
2023/03/08 11:55:49;;;;;;;10.52;5.25;;;;;;;;;;5072083;28;19986;-50
2023/03/08 11:58:24;;;;;;;15.93;6.35;;;;;;;;;;5071675;28;20421;-52
2023/03/08 12:00:54;;;;;;;14.45;7.07;;;;;;;;;;5071928;28;20094;-50
2023/03/08 12:03:25;;;;;;;14.63;6.28;;;;;;;;;;5071821;28;20102;-56
2023/03/08 12:05:55;;;;;;;13.30;6.85;;;;;;;;;;5071463;28;20098;-51
2023/03/08 12:08:27;;;;;;;13.93;7.03;;;;;;;;;;5071482;28;20052;-53
2023/03/08 12:10:56;;;;;;;14.30;7.00;;;;;;;;;;5071491;28;20045;-55
2023/03/08 12:13:32;;;;;;;12.98;6.78;;;;;;;;;;5071337;28;20048;-52
2023/03/08 12:16:08;;;;;;;16.48;7.80;;;;;;;;;;5071432;28;20094;-54
2023/03/08 12:18:40;;;;;;;14.77;7.07;;;;;;;;;;5071270;28;20049;-54
2023/03/08 12:21:18;;;;;;;16.23;7.55;;;;;;;;;;5071267;28;20191;-56
2023/03/08 12:23:51;;;;;;;15.30;6.93;;;;;;;;;;5071241;28;20045;-52
2023/03/08 12:26:23;;;;;;;15.05;6.90;;;;;;;;;;5071355;28;20049;-53
2023/03/08 12:28:55;;;;;;;17.50;8.60;;;;;;;;;;5071025;28;20094;-53
2023/03/08 12:31:27;;;;;;;16.23;8.13;;;;;;;;;;5071156;28;20489;-54
2023/03/08 12:33:55;;;;;;;14.02;7.05;;;;;;;;;;5071195;28;20481;-54
2023/03/08 12:36:22;;;;;;;15.63;7.13;;;;;;;;;;5071123;28;20052;-55
2023/03/08 12:38:55;;;;;;;13.43;6.35;;;;;;;;;;5070869;28;20149;-54
2023/03/08 12:41:26;;;;;;;16.15;7.07;;;;;;;;;;5071338;28;20052;-55
2023/03/08 12:44:03;;;;;;;15.25;7.57;;;;;;;;;;5070860;28;20090;-51
2023/03/08 12:46:45;;;;;;;14.98;7.28;;;;;;;;;;5070946;28;20051;-53
2023/03/08 12:49:21;;;;;;;13.10;6.88;;;;;;;;;;5064550;28;20041;-53
2023/03/08 12:51:57;;;;;;;12.25;6.82;;;;;;;;;;5051022;28;20049;-56
2023/03/08 12:54:27;;;;;;;12.98;6.70;;;;;;;;;;5050834;28;20052;-55
2023/03/08 12:56:55;;;;;;;12.70;6.35;;;;;;;;;;5050761;28;20052;-51
2023/03/08 12:59:34;;;;;;;11.98;6.05;;;;;;;;;;5050763;28;20053;-53
2023/03/08 13:02:21;;;;;;;13.73;5.78;;;;;;;;;;5050909;28;20472;-57
2023/03/08 13:04:48;;;;;;;11.65;5.63;;;;;;;;;;5051005;28;20045;-52
2023/03/08 13:07:26;;;;;;;10.82;4.93;;;;;;;;;;5050620;28;20107;-54
2023/03/08 13:10:04;;;;;;;10.57;4.38;;;;;;;;;;5050604;28;20102;-55
2023/03/08 13:12:42;;;;;;;9.10;4.30;;;;;;;;;;5050578;28;20053;-53
2023/03/08 13:15:24;;;;;;;10.20;4.10;;;;;;;;;;5049973;28;20052;-55
2023/03/08 13:18:05;;;;;;;7.95;3.30;;;;;;;;;;5050602;28;20402;-53
2023/03/08 13:21:05;;;;;;;4.68;2.38;;;;;;;;;;5050482;28;20090;-51
2023/03/08 13:23:36;;;;;;;;;;;;;;;;;;5047524;28;20052;-54
2023/03/08 13:26:22;;;;;;;5.57;1.77;;;;;;;;;;5050673;28;19928;-52
2023/03/08 13:28:49;;;;;;;4.25;1.63;;;;;;;;;;5050308;28;20048;-54
2023/03/08 13:31:20;;;;;;;5.18;1.60;;;;;;;;;;5049943;28;20115;-55
2023/03/08 13:33:47;;;;;;;;;;;;;;;;;;5050948;28;20048;-55
2023/03/08 13:36:18;;;;;;;3.83;1.20;;;;;;;;;;5050511;28;19921;-54
2023/03/08 13:38:58;;;;;;;4.05;1.13;;;;;;;;;;5050378;28;20041;-53
2023/03/08 13:41:36;;;;;;;4.25;1.73;;;;;;;;;;5050278;28;20049;-54
2023/03/08 13:44:04;;;;;;;3.63;1.10;;;;;;;;;;5050180;28;20044;-53
2023/03/08 13:46:33;;;;;;;3.97;1.67;;;;;;;;;;5050073;28;20425;-52
2023/03/08 13:49:01;;;;;;;5.32;1.50;;;;;;;;;;5050175;28;20056;-53
2023/03/08 13:51:29;;;;;;;2.92;1.20;;;;;;;;;;5049978;28;20057;-55
2023/03/08 13:53:56;;;;;;;4.88;1.58;;;;;;;;;;5050024;28;20337;-50
2023/03/08 13:56:24;;;;;;;3.72;1.30;;;;;;;;;;5049887;28;20045;-55
2023/03/08 13:58:53;;;;;;;5.03;1.42;;;;;;;;;;5049989;28;20045;-53
2023/03/08 14:01:22;;;;;;;3.47;1.30;;;;;;;;;;5049986;28;20460;-54
2023/03/08 14:03:51;;;;;;;3.65;1.33;;;;;;;;;;5050048;28;20053;-56
2023/03/08 14:06:19;;;;;;;2.92;1.60;;;;;;;;;;5049721;28;20375;-55
2023/03/08 14:08:47;;;;;;;4.22;1.30;;;;;;;;;;5049720;28;20478;-55
2023/03/08 14:11:17;;;;;;;3.75;1.10;;;;;;;;;;5049821;28;20059;-54
2023/03/08 14:13:47;;;;;;;2.88;1.05;;;;;;;;;;5050236;28;20052;-56
2023/03/08 14:16:25;;;;;;;4.15;1.10;;;;;;;;;;5049542;28;20049;-55
2023/03/08 14:18:53;;;;;;;5.70;1.38;;;;;;;;;;5052551;28;20044;-67
2023/03/08 14:21:23;;;;;;;4.32;1.33;;;;;;;;;;5050294;28;20103;-52
2023/03/08 14:23:52;;;;;;;3.45;1.30;;;;;;;;;;5052096;28;20049;-55
2023/03/08 14:26:32;;;;;;;3.97;1.20;;;;;;;;;;5070297;28;20102;-50
2023/03/08 14:29:10;;;;;;;3.50;1.15;;;;;;;;;;5074177;28;20547;-60
2023/03/08 14:31:37;;;;;;;3.05;1.15;;;;;;;;;;5056987;28;20095;-58
2023/03/08 14:34:19;;;;;;;4.85;1.50;;;;;;;;;;5053482;28;20413;-55
2023/03/08 14:36:51;;;;;;;3.83;1.30;;;;;;;;;;5053386;28;20052;-56
2023/03/08 14:39:19;;;;;;;6.15;2.17;;;;;;;;;;5053402;28;20050;-54